Time;durP1;ratioP1;P1;durP2;ratioP2;P2;SDS_P1;SDS_P2;PMS_P1;PMS_P2;Temp;Humidity;BMP_temperature;BMP_pressure;BME280_temperature;BME280_humidity;BME280_pressure;Samples;Min_cycle;Max_cycle;Signal;HPM_P1;HPM_P2
2023/07/26 00:02:06;;;;;;;13.20;5.10;;;;;;;28.81;42.24;97746.56;5074541;28;20024;-74
2023/07/26 00:04:31;;;;;;;11.18;5.25;;;;;;;28.76;42.47;97750.03;5074178;28;20076;-74
2023/07/26 00:07:00;;;;;;;13.30;5.82;;;;;;;28.77;42.34;97743.59;5055888;28;20049;-74
2023/07/26 00:09:28;;;;;;;9.05;4.90;;;;;;;28.76;42.52;97743.84;5073231;28;20130;-74
2023/07/26 00:11:54;;;;;;;13.15;5.35;;;;;;;28.71;42.52;97741.16;5072619;28;20030;-74
2023/07/26 00:14:19;;;;;;;11.73;5.35;;;;;;;28.70;42.51;97743.00;5090054;28;20051;-74
2023/07/26 00:16:49;;;;;;;12.88;5.07;;;;;;;28.66;42.56;97729.31;5091933;28;20487;-74
2023/07/26 00:19:16;;;;;;;9.77;5.30;;;;;;;28.63;42.70;97735.19;5081463;28;20033;-74
2023/07/26 00:21:41;;;;;;;13.02;5.63;;;;;;;28.57;42.76;97721.97;5073929;28;20025;-74
2023/07/26 00:24:07;;;;;;;14.65;5.35;;;;;;;28.55;43.04;97727.59;5055115;28;20044;-74
2023/07/26 00:26:32;;;;;;;10.60;5.80;;;;;;;28.50;43.19;97722.19;5072389;28;20105;-74
2023/07/26 00:28:57;;;;;;;9.48;5.07;;;;;;;28.50;43.18;97723.00;5072687;28;20036;-74
2023/07/26 00:31:23;;;;;;;12.82;5.55;;;;;;;28.51;43.04;97721.09;5073586;28;20060;-74
2023/07/26 00:33:48;;;;;;;11.70;5.20;;;;;;;28.53;43.43;97721.69;5072480;28;20461;-73
2023/07/26 00:36:14;;;;;;;14.50;5.22;;;;;;;28.50;43.70;97725.69;5039094;28;20126;-74
2023/07/26 00:38:39;;;;;;;14.57;5.60;;;;;;;28.48;43.65;97730.50;5072426;28;20036;-74
2023/07/26 00:41:06;;;;;;;12.43;5.20;;;;;;;28.44;43.35;97723.22;5072348;28;20396;-74
2023/07/26 00:43:33;;;;;;;11.57;5.70;;;;;;;28.44;43.43;97715.16;5055930;28;20395;-75
2023/07/26 00:45:59;;;;;;;10.75;5.78;;;;;;;28.39;43.57;97712.47;5072103;28;20043;-74
2023/07/26 00:48:24;;;;;;;12.80;5.68;;;;;;;28.38;43.80;97708.16;5072468;28;20449;-74
2023/07/26 00:51:06;;;;;;;9.00;5.50;;;;;;;28.36;43.85;97712.97;5071893;28;20116;-74
2023/07/26 00:53:32;;;;;;;16.58;5.75;;;;;;;28.34;43.50;97714.03;5056051;28;20483;-74
2023/07/26 00:55:58;;;;;;;10.80;5.88;;;;;;;28.24;43.70;97705.09;5055296;28;20090;-74
2023/07/26 00:58:23;;;;;;;15.23;5.85;;;;;;;28.22;43.98;97709.91;5055515;28;20032;-74
2023/07/26 01:00:49;;;;;;;11.35;5.15;;;;;;;28.25;44.09;97712.88;5054462;28;20104;-73
2023/07/26 01:03:14;;;;;;;10.65;5.40;;;;;;;28.20;44.05;97710.16;5039849;28;20028;-74
2023/07/26 01:09:25;;;;;;;9.95;5.75;;;;;;;28.11;44.33;97700.97;5017878;28;20049;-73
2023/07/26 01:12:54;;;;;;;9.40;5.30;;;;;;;28.08;44.49;97694.22;5030711;28;20029;-74
2023/07/26 01:15:26;;;;;;;13.50;6.10;;;;;;;28.11;44.15;97701.78;4952784;29;20090;-73
2023/07/26 01:18:11;;;;;;;10.55;5.60;;;;;;;28.08;44.50;97706.84;4938297;29;20043;-74
2023/07/26 01:20:39;;;;;;;14.40;5.95;;;;;;;28.02;44.40;97708.66;4936287;29;20058;-74
2023/07/26 01:23:30;;;;;;;10.00;5.45;;;;;;;28.03;44.93;97706.81;4952623;29;20047;-74
2023/07/26 01:25:56;;;;;;;14.30;5.70;;;;;;;28.02;44.83;97705.19;4952958;29;20035;-74
2023/07/26 01:28:21;;;;;;;10.57;5.22;;;;;;;28.01;44.53;97700.91;4952530;29;20605;-74
2023/07/26 01:30:46;;;;;;;11.60;5.78;;;;;;;27.94;44.69;97698.38;4962413;28;20039;-74
2023/07/26 01:33:12;;;;;;;10.85;5.85;;;;;;;27.91;45.09;97689.00;4955691;28;20493;-74
2023/07/26 01:35:46;;;;;;;9.75;5.47;;;;;;;27.88;44.91;97691.34;4971963;28;20047;-74
2023/07/26 01:38:14;;;;;;;13.68;5.38;;;;;;;27.85;44.95;97681.97;4971707;28;20094;-74
2023/07/26 01:40:43;;;;;;;9.27;5.72;;;;;;;27.83;45.23;97688.63;4971458;28;20062;-74
2023/07/26 01:43:16;;;;;;;10.75;5.53;;;;;;;27.78;45.36;97687.53;4955404;28;20087;-74
2023/07/26 01:45:49;;;;;;;13.85;6.10;;;;;;;27.79;45.52;97682.97;4974574;28;20065;-74
2023/07/26 01:48:14;;;;;;;10.98;5.93;;;;;;;27.76;45.38;97688.84;5018692;28;20048;-74
2023/07/26 01:50:40;;;;;;;13.93;5.72;;;;;;;27.70;45.25;97681.81;5072209;28;20025;-74
2023/07/26 01:53:11;;;;;;;14.57;6.15;;;;;;;27.67;45.77;97683.13;5071144;28;20036;-74
2023/07/26 01:55:44;;;;;;;12.25;5.82;;;;;;;27.67;45.45;97688.47;5071423;28;20036;-82
2023/07/26 01:58:10;;;;;;;11.57;5.85;;;;;;;27.64;45.39;97686.31;5055436;28;20025;-75
2023/07/26 02:00:38;;;;;;;11.30;5.93;;;;;;;27.65;45.59;97687.13;5072265;28;20023;-75
2023/07/26 02:03:04;;;;;;;12.18;5.57;;;;;;;27.62;45.95;97683.09;5054706;28;20070;-74
2023/07/26 02:05:29;;;;;;;14.10;5.50;;;;;;;27.58;45.77;97685.47;5053755;28;20084;-76
2023/07/26 02:07:55;;;;;;;15.65;5.88;;;;;;;27.55;46.06;97688.66;5070470;28;20552;-76
2023/07/26 02:10:21;;;;;;;12.38;5.70;;;;;;;27.49;46.39;97678.13;5070934;28;20036;-77
2023/07/26 02:12:47;;;;;;;13.00;5.95;;;;;;;27.50;46.43;97690.44;5059267;28;20036;-77
2023/07/26 02:15:12;;;;;;;12.45;5.82;;;;;;;27.44;46.29;97687.72;5077537;28;20040;-77
2023/07/26 02:17:38;;;;;;;10.70;5.90;;;;;;;27.40;46.37;97685.81;5077669;28;20028;-76
2023/07/26 02:20:06;;;;;;;13.27;5.90;;;;;;;27.38;46.37;97691.41;5077613;28;20047;-76
2023/07/26 02:22:32;;;;;;;10.43;5.72;;;;;;;27.32;46.36;97684.38;5093617;28;20040;-77
2023/07/26 02:24:57;;;;;;;12.27;6.05;;;;;;;27.32;46.53;97684.38;5060776;28;20110;-76
2023/07/26 02:27:25;;;;;;;11.93;5.53;;;;;;;27.31;46.42;97690.00;5077665;28;20035;-77
2023/07/26 02:30:00;;;;;;;8.98;5.97;;;;;;;27.29;46.65;97694.75;5077648;28;20032;-76
2023/07/26 02:32:29;;;;;;;11.73;6.25;;;;;;;27.23;46.59;97688.53;5062047;28;20028;-77
2023/07/26 02:34:55;;;;;;;13.90;5.80;;;;;;;27.22;46.68;97687.72;5060770;28;20040;-76
2023/07/26 02:37:20;;;;;;;12.73;5.95;;;;;;;27.22;46.57;97686.94;5078661;28;20111;-77
2023/07/26 02:39:53;;;;;;;10.40;5.55;;;;;;;27.20;46.42;97687.19;5060619;28;20044;-77
2023/07/26 02:42:29;;;;;;;9.98;5.38;;;;;;;27.14;46.40;97680.13;5077620;28;20028;-77
2023/07/26 02:44:54;;;;;;;10.63;5.43;;;;;;;27.17;46.43;97687.69;5077367;28;20499;-77
2023/07/26 02:47:25;;;;;;;12.32;5.65;;;;;;;27.14;46.53;97687.38;5043997;28;20028;-77
2023/07/26 02:50:00;;;;;;;11.25;6.15;;;;;;;27.18;46.73;97680.44;5061315;28;20029;-77
2023/07/26 02:52:28;;;;;;;10.95;5.38;;;;;;;27.18;46.92;97677.75;5077573;28;20125;-77
2023/07/26 02:55:02;;;;;;;15.13;5.80;;;;;;;27.14;46.71;97672.09;5078663;28;20118;-77
2023/07/26 02:58:06;;;;;;;9.75;5.70;;;;;;;27.13;46.67;97667.78;5075493;28;20041;-76
2023/07/26 03:00:40;;;;;;;11.55;5.93;;;;;;;27.14;47.00;97664.06;5078652;28;20023;-77
2023/07/26 03:03:57;;;;;;;13.57;5.57;;;;;;;27.18;46.57;97667.03;5086323;28;20035;-78
2023/07/26 03:06:48;;;;;;;11.48;5.25;;;;;;;27.34;46.60;97663.53;4977120;28;20481;-75
2023/07/26 03:09:31;;;;;;;17.08;6.05;;;;;;;27.48;46.47;97673.81;4977681;28;20026;-77
2023/07/26 03:12:52;;;;;;;;;;;;;;;;;;;;;
2023/07/26 03:19:52;;;;;;;32.65;6.00;;;;;;;27.60;46.00;97677.97;4919397;29;20040;-75
2023/07/26 03:22:02;;;;;;;15.55;5.60;;;;;;;27.72;46.44;97675.16;4869582;29;20034;-76
2023/07/26 03:24:27;;;;;;;14.75;5.85;;;;;;;27.74;46.17;97675.69;4859835;29;20052;-75
2023/07/26 03:27:00;;;;;;;12.88;5.53;;;;;;;27.65;45.78;97676.41;4860579;29;20437;-84
2023/07/26 03:29:26;;;;;;;26.27;5.70;;;;;;;27.61;46.01;97673.41;4876287;29;20518;-83
2023/07/26 03:31:54;;;;;;;12.65;5.18;;;;;;;27.72;46.64;97671.63;4860468;29;20026;-84
2023/07/26 03:34:22;;;;;;;11.65;5.78;;;;;;;27.81;46.27;97683.53;4845085;29;20048;-84
2023/07/26 03:36:47;;;;;;;;;;;;;;;27.88;46.06;97676.09;4860622;29;20056;-84
2023/07/26 03:39:20;;;;;;;12.30;5.47;;;;;;;27.94;45.82;97676.94;4858501;29;19912;-84
2023/07/26 03:41:46;;;;;;;6.50;4.78;;;;;;;28.05;45.47;97673.28;4860601;29;20501;-84
2023/07/26 03:44:13;;;;;;;9.68;5.25;;;;;;;28.15;45.19;97670.69;4913660;29;20056;-84
2023/07/26 03:46:39;;;;;;;11.65;5.28;;;;;;;28.23;44.95;97663.22;4922882;29;20177;-83
2023/07/26 03:49:04;;;;;;;11.70;5.57;;;;;;;28.31;44.54;97655.50;4935506;29;20503;-83
2023/07/26 03:51:30;;;;;;;11.35;5.75;;;;;;;28.54;44.52;97663.41;4919259;29;20130;-83
2023/07/26 03:53:58;;;;;;;9.27;5.50;;;;;;;28.79;43.71;97649.34;4935262;28;20118;-83
2023/07/26 03:56:24;;;;;;;10.95;5.43;;;;;;;29.07;43.01;97661.56;5002313;28;20558;-82
2023/07/26 03:58:51;;;;;;;13.07;5.28;;;;;;;29.34;42.42;97657.91;5050304;28;20040;-82
2023/07/26 04:01:17;;;;;;;10.90;5.63;;;;;;;29.59;42.05;97657.94;5110607;28;20395;-83
2023/07/26 04:03:43;;;;;;;10.77;5.50;;;;;;;29.88;41.92;97662.81;5093558;28;20032;-83
2023/07/26 04:06:12;;;;;;;11.52;5.20;;;;;;;30.22;41.13;97664.13;5094726;28;20048;-82
2023/07/26 04:08:39;;;;;;;9.85;5.55;;;;;;;30.54;40.65;97669.25;5076623;28;20136;-83
2023/07/26 04:11:05;;;;;;;11.60;5.40;;;;;;;30.76;40.12;97666.22;5093463;28;20032;-83
2023/07/26 04:13:30;;;;;;;14.32;5.90;;;;;;;30.63;39.97;97667.59;5094536;28;20051;-83
2023/07/26 04:15:56;;;;;;;12.55;5.53;;;;;;;30.76;39.68;97670.78;5092973;28;20548;-83
2023/07/26 04:18:24;;;;;;;11.52;5.72;;;;;;;31.20;39.06;97675.47;5110467;28;20512;-83
2023/07/26 04:20:52;;;;;;;11.90;5.45;;;;;;;31.80;37.97;97670.03;5094206;28;20032;-82
2023/07/26 04:23:20;;;;;;;11.57;5.47;;;;;;;32.40;37.12;97660.88;5095096;28;20044;-78
2023/07/26 04:26:01;;;;;;;8.32;5.38;;;;;;;33.10;36.20;97656.84;5114871;28;20047;-81
2023/07/26 04:28:26;;;;;;;12.48;5.47;;;;;;;33.81;34.86;97665.06;5093351;28;20051;-78
2023/07/26 04:30:52;;;;;;;26.52;5.05;;;;;;;34.43;33.71;97665.66;5092473;28;20028;-77
2023/07/26 04:33:17;;;;;;;11.73;5.28;;;;;;;35.01;32.80;97673.50;5092567;28;20028;-76
2023/07/26 04:35:45;;;;;;;13.27;5.07;;;;;;;35.42;32.26;97672.66;5091687;28;20078;-79
2023/07/26 04:38:10;;;;;;;12.63;5.00;;;;;;;35.79;31.84;97673.47;5109350;28;20135;-77
2023/07/26 04:40:37;;;;;;;14.85;5.00;;;;;;;35.96;31.16;97672.75;5074261;28;20063;-78
2023/07/26 04:43:02;;;;;;;10.38;5.20;;;;;;;35.96;31.40;97676.28;5076107;28;20082;-76
2023/07/26 04:45:29;;;;;;;13.38;5.32;;;;;;;36.49;30.46;97669.25;5093674;28;20035;-79
2023/07/26 04:47:55;;;;;;;10.88;4.97;;;;;;;36.92;29.76;97670.53;5092476;28;20028;-81
2023/07/26 04:50:20;;;;;;;13.48;5.50;;;;;;;37.32;29.38;97666.94;5091883;28;20407;-78
2023/07/26 04:52:46;;;;;;;10.77;5.20;;;;;;;37.77;28.58;97662.00;5092282;28;20028;-77
2023/07/26 04:55:11;;;;;;;17.67;5.38;;;;;;;38.09;28.39;97661.78;5093560;28;20482;-77
2023/07/26 04:57:40;;;;;;;10.45;5.30;;;;;;;38.52;27.59;97658.94;5092229;28;20031;-80
2023/07/26 05:00:09;;;;;;;12.95;5.25;;;;;;;38.99;26.83;97654.56;5091511;28;20067;-81
2023/07/26 05:02:36;;;;;;;14.68;5.30;;;;;;;39.37;26.45;97662.63;5093607;28;20085;-85
2023/07/26 05:05:04;;;;;;;13.45;5.03;;;;;;;39.61;26.09;97656.53;5073947;28;20052;-82
2023/07/26 05:07:30;;;;;;;12.77;4.95;;;;;;;39.54;26.22;97653.53;5093752;28;20450;-86
2023/07/26 05:09:55;;;;;;;19.90;5.25;;;;;;;39.08;26.82;97653.38;5075718;28;20063;-84
2023/07/26 05:12:23;;;;;;;11.85;5.20;;;;;;;39.23;26.91;97656.66;5093672;28;20081;-86
2023/07/26 05:14:52;;;;;;;21.45;5.22;;;;;;;39.23;26.38;97653.94;5093710;28;20465;-85
2023/07/26 05:17:17;;;;;;;22.80;5.50;;;;;;;39.53;26.23;97653.88;5113596;28;20062;-86
2023/07/26 05:19:42;;;;;;;16.85;5.28;;;;;;;40.08;25.41;97652.72;5097839;28;20032;-85
2023/07/26 05:22:08;;;;;;;14.00;5.18;;;;;;;40.57;24.65;97654.75;5077175;28;20103;-84
2023/07/26 05:24:36;;;;;;;15.48;5.70;;;;;;;41.03;24.53;97660.09;5109117;28;20044;-84
2023/07/26 05:27:04;;;;;;;14.20;5.43;;;;;;;41.44;23.96;97644.50;5091931;28;20092;-85
2023/07/26 05:29:34;;;;;;;14.90;5.32;;;;;;;41.88;23.52;97639.09;5092808;28;20495;-84
2023/07/26 05:32:02;;;;;;;11.18;5.05;;;;;;;42.34;23.06;97643.41;5075216;28;20052;-84
2023/07/26 05:34:28;;;;;;;16.83;5.50;;;;;;;42.75;22.22;97644.00;5074869;28;20043;-83
2023/07/26 05:36:53;;;;;;;11.00;5.37;;;;;;;43.09;21.85;97644.38;5091142;28;20040;-85
2023/07/26 05:39:19;;;;;;;16.10;5.47;;;;;;;43.53;21.07;97635.88;5091573;28;20023;-84
2023/07/26 05:41:44;;;;;;;16.53;5.33;;;;;;;43.86;20.47;97626.34;5092676;28;20020;-85
2023/07/26 05:44:10;;;;;;;12.53;4.80;;;;;;;44.12;19.90;97624.81;5108049;28;20035;-83
2023/07/26 05:46:35;;;;;;;12.93;4.73;;;;;;;44.36;19.90;97626.41;5108506;28;20157;-86
2023/07/26 05:49:01;;;;;;;12.07;4.70;;;;;;;44.55;19.56;97626.31;5108813;28;20063;-85
2023/07/26 05:51:29;;;;;;;13.47;5.03;;;;;;;44.75;19.59;97621.50;5091403;28;20031;-85
2023/07/26 05:53:54;;;;;;;15.65;5.10;;;;;;;44.98;18.92;97618.72;5090817;28;20032;-84
2023/07/26 05:56:20;;;;;;;12.50;4.90;;;;;;;45.16;18.88;97605.16;5108274;28;20059;-83
2023/07/26 05:58:45;;;;;;;19.73;5.67;;;;;;;45.33;18.39;97603.81;5091673;28;20453;-84
2023/07/26 06:01:11;;;;;;;16.43;5.63;;;;;;;45.48;18.79;97609.50;5091274;28;20039;-85
2023/07/26 06:03:38;;;;;;;10.93;5.23;;;;;;;45.66;19.10;97613.25;5091113;28;20032;-85
2023/07/26 06:06:16;;;;;;;18.02;6.18;;;;;;;45.87;18.57;97618.19;5092650;28;20059;-85
2023/07/26 06:08:42;;;;;;;12.43;5.57;;;;;;;46.03;17.96;97612.44;5091333;28;20123;-83
2023/07/26 06:11:07;;;;;;;16.77;5.77;;;;;;;46.18;18.28;97615.34;5091911;28;20517;-85
2023/07/26 06:13:33;;;;;;;13.57;6.23;;;;;;;46.27;17.91;97623.31;5090761;28;20051;-85
2023/07/26 06:15:58;;;;;;;19.27;6.30;;;;;;;46.35;18.07;97624.94;5107751;28;20044;-84
2023/07/26 06:18:29;;;;;;;14.57;5.83;;;;;;;46.46;18.20;97630.53;5092857;28;20060;-84
2023/07/26 06:20:57;;;;;;;19.75;5.97;;;;;;;46.57;17.98;97639.69;5090641;28;20040;-84
2023/07/26 06:23:22;;;;;;;15.48;5.63;;;;;;;46.66;18.25;97634.66;5091141;28;20056;-88
2023/07/26 06:25:48;;;;;;;16.10;5.30;;;;;;;46.80;17.84;97641.41;5090740;28;20082;-86
2023/07/26 06:28:13;;;;;;;13.33;5.30;;;;;;;46.85;17.84;97641.84;5091222;28;20032;-85
2023/07/26 06:30:40;;;;;;;18.50;5.43;;;;;;;46.98;17.29;97634.06;5092017;28;20032;-87
2023/07/26 06:33:05;;;;;;;;;;;;;;;46.96;17.25;97633.66;5074916;28;20032;-85
2023/07/26 06:35:31;;;;;;;11.50;4.80;;;;;;;47.10;16.61;97625.44;5092808;28;20366;-86
2023/07/26 06:37:56;;;;;;;12.13;5.20;;;;;;;47.14;16.51;97633.75;5092107;28;20059;-86
2023/07/26 06:40:21;;;;;;;11.00;5.00;;;;;;;47.22;16.50;97632.59;5107206;28;20036;-86
2023/07/26 06:42:47;;;;;;;13.57;4.50;;;;;;;47.26;16.33;97633.41;5090944;28;20035;-86
2023/07/26 06:45:12;;;;;;;13.00;4.70;;;;;;;47.31;16.18;97618.44;5090774;28;20024;-85
2023/07/26 06:47:38;;;;;;;18.73;5.40;;;;;;;47.36;15.46;97625.56;5102408;28;20024;-88
2023/07/26 06:50:04;;;;;;;16.30;5.03;;;;;;;47.35;15.65;97623.97;5070730;28;20043;-90
2023/07/26 06:52:32;;;;;;;12.13;4.78;;;;;;;47.43;15.37;97626.38;5059736;28;20411;-86
2023/07/26 06:54:58;;;;;;;15.30;5.00;;;;;;;47.45;15.27;97623.25;5074296;28;20118;-84
2023/07/26 06:57:23;;;;;;;12.33;4.57;;;;;;;47.43;15.53;97620.06;5074088;28;20040;-85
2023/07/26 06:59:49;;;;;;;12.77;4.87;;;;;;;47.39;15.39;97610.97;5093970;28;20062;-85
2023/07/26 07:02:14;;;;;;;16.33;4.67;;;;;;;47.38;15.65;97615.72;5096383;28;20141;-86
2023/07/26 07:04:40;;;;;;;14.30;4.80;;;;;;;47.36;15.63;97606.22;5095746;28;20048;-84
2023/07/26 07:07:05;;;;;;;14.20;4.60;;;;;;;47.38;15.48;97606.63;5111605;28;20468;-84
2023/07/26 07:09:31;;;;;;;10.50;4.27;;;;;;;47.40;15.59;97598.75;5095606;28;20063;-86
2023/07/26 07:11:56;;;;;;;12.73;4.67;;;;;;;47.41;15.69;97598.34;5095724;28;20407;-85
2023/07/26 07:14:22;;;;;;;15.10;4.67;;;;;;;47.38;15.24;97599.16;5077700;28;20040;-85
2023/07/26 07:16:47;;;;;;;14.33;4.83;;;;;;;47.32;15.51;97586.06;5111632;28;20059;-85
2023/07/26 07:19:13;;;;;;;15.30;4.73;;;;;;;47.30;15.59;97592.00;5110860;28;20047;-85
2023/07/26 07:21:38;;;;;;;12.57;4.10;;;;;;;47.26;15.26;97577.38;5094414;28;20024;-85
2023/07/26 07:24:04;;;;;;;15.30;5.07;;;;;;;47.16;15.21;97567.88;5093912;28;20039;-85
2023/07/26 07:26:30;;;;;;;15.70;4.88;;;;;;;47.16;15.17;97572.59;5077804;28;20031;-85
2023/07/26 07:28:56;;;;;;;8.98;4.70;;;;;;;47.09;15.32;97571.38;5095436;28;20036;-85
2023/07/26 07:31:21;;;;;;;15.33;4.93;;;;;;;47.05;16.05;97575.31;5095205;28;20020;-85
2023/07/26 07:33:47;;;;;;;12.63;4.77;;;;;;;47.03;16.11;97567.41;5111345;28;20039;-84
2023/07/26 07:36:17;;;;;;;12.17;4.47;;;;;;;47.02;15.96;97562.28;5076928;28;20095;-84
2023/07/26 07:38:44;;;;;;;14.50;4.50;;;;;;;47.06;16.53;97563.88;5110341;28;20032;-84
2023/07/26 07:41:09;;;;;;;;;;;;;;;46.97;16.34;97565.41;5094596;28;20135;-83
2023/07/26 07:43:35;;;;;;;10.33;4.70;;;;;;;47.04;16.24;97563.47;5095013;28;19908;-85
2023/07/26 07:46:00;;;;;;;15.37;4.43;;;;;;;47.09;16.09;97549.28;5076924;28;20032;-85
2023/07/26 07:48:26;;;;;;;11.93;5.07;;;;;;;47.08;16.00;97555.19;5093466;28;20040;-85
2023/07/26 07:50:54;;;;;;;11.87;4.67;;;;;;;47.06;15.67;97552.81;5094745;28;20028;-84
2023/07/26 07:53:20;;;;;;;12.98;4.97;;;;;;;47.01;15.74;97550.44;5093649;28;20078;-84
2023/07/26 07:55:45;;;;;;;15.18;4.75;;;;;;;46.97;16.05;97541.38;5093671;28;20612;-83
2023/07/26 07:58:11;;;;;;;11.53;4.63;;;;;;;46.91;16.06;97538.16;5110094;28;20043;-84
2023/07/26 08:00:37;;;;;;;14.37;4.20;;;;;;;46.85;15.88;97548.00;5094729;28;20031;-85
2023/07/26 08:03:03;;;;;;;10.87;3.93;;;;;;;46.74;15.50;97536.91;5093189;28;20039;-84
2023/07/26 08:05:28;;;;;;;10.65;4.50;;;;;;;46.69;15.44;97548.31;5093361;28;20055;-82
2023/07/26 08:07:54;;;;;;;17.70;4.93;;;;;;;46.61;15.69;97551.41;5093290;28;20101;-84
2023/07/26 08:10:20;;;;;;;11.80;4.47;;;;;;;46.51;15.82;97545.44;5110333;28;20032;-84
2023/07/26 08:12:46;;;;;;;15.00;4.60;;;;;;;46.43;15.69;97548.53;5093924;28;20509;-86
2023/07/26 08:15:12;;;;;;;13.17;4.77;;;;;;;46.36;15.63;97535.50;5093572;28;20057;-87
2023/07/26 08:17:37;;;;;;;19.65;5.07;;;;;;;46.25;15.89;97531.88;5077014;28;20077;-83
2023/07/26 08:20:04;;;;;;;10.67;4.37;;;;;;;46.18;15.98;97536.16;5093541;28;20032;-84
2023/07/26 08:22:29;;;;;;;10.48;4.50;;;;;;;46.11;15.98;97529.78;5076382;28;20040;-83
2023/07/26 08:24:55;;;;;;;10.97;4.37;;;;;;;46.04;15.63;97533.28;5093636;28;20040;-84
2023/07/26 08:27:21;;;;;;;17.10;5.10;;;;;;;46.01;15.54;97537.56;5093641;28;20032;-84
2023/07/26 08:29:46;;;;;;;17.63;4.87;;;;;;;45.93;15.89;97529.63;5110498;28;20059;-83
2023/07/26 08:32:12;;;;;;;19.17;5.33;;;;;;;45.89;16.13;97535.13;5093223;28;20023;-83
2023/07/26 08:34:37;;;;;;;13.27;4.80;;;;;;;45.73;15.99;97524.31;5093176;28;20034;-84
2023/07/26 08:37:03;;;;;;;10.17;3.93;;;;;;;45.66;15.87;97532.53;5110172;28;20032;-84
2023/07/26 08:39:28;;;;;;;13.27;4.23;;;;;;;45.56;15.53;97541.50;5093474;28;20372;-84
2023/07/26 08:41:54;;;;;;;15.57;4.13;;;;;;;45.44;15.97;97543.34;5092912;28;20101;-84
2023/07/26 08:44:20;;;;;;;16.20;4.10;;;;;;;45.38;15.75;97542.09;5092739;28;20063;-84
2023/07/26 08:46:45;;;;;;;9.93;4.33;;;;;;;45.25;16.10;97533.28;5093075;28;20050;-82
2023/07/26 08:49:11;;;;;;;14.25;4.32;;;;;;;45.18;16.12;97538.69;5075951;28;20115;-84
2023/07/26 08:51:37;;;;;;;12.73;4.40;;;;;;;45.11;15.97;97552.41;5092974;28;20042;-83
2023/07/26 08:54:02;;;;;;;15.20;4.77;;;;;;;45.03;16.52;97548.78;5075705;28;20043;-86
2023/07/26 08:56:28;;;;;;;15.80;4.37;;;;;;;44.97;15.97;97541.97;5075265;28;20109;-84
2023/07/26 08:58:53;;;;;;;11.50;4.57;;;;;;;44.88;16.17;97541.47;5092368;28;20028;-84
2023/07/26 09:01:19;;;;;;;15.33;4.90;;;;;;;44.80;16.76;97544.16;5076024;28;20407;-83
2023/07/26 09:03:45;;;;;;;15.35;5.15;;;;;;;44.77;16.50;97542.16;5092532;28;20064;-85
2023/07/26 09:06:10;;;;;;;11.53;4.43;;;;;;;44.71;16.77;97532.63;5095045;28;20047;-83
2023/07/26 09:08:36;;;;;;;13.23;4.50;;;;;;;44.65;16.71;97538.84;5092449;28;20036;-85
2023/07/26 09:11:03;;;;;;;16.60;4.83;;;;;;;44.49;16.39;97530.69;5092325;28;20044;-84
2023/07/26 09:13:28;;;;;;;14.25;4.47;;;;;;;44.35;16.72;97528.56;5092651;28;20016;-83
2023/07/26 09:15:54;;;;;;;12.17;4.60;;;;;;;44.20;17.00;97525.59;5092542;28;20455;-83
2023/07/26 09:18:20;;;;;;;15.33;4.93;;;;;;;44.08;17.17;97523.03;5096016;28;20032;-83
2023/07/26 09:20:45;;;;;;;15.77;4.50;;;;;;;43.98;17.28;97512.66;5076562;28;20039;-84
2023/07/26 09:23:11;;;;;;;12.97;4.47;;;;;;;43.98;17.57;97512.66;5092228;28;20035;-84
2023/07/26 09:25:44;;;;;;;11.05;4.47;;;;;;;43.97;17.88;97503.63;5058806;28;20032;-84
2023/07/26 09:28:10;;;;;;;14.45;4.25;;;;;;;43.89;18.01;97494.47;5092587;28;20555;-83
2023/07/26 09:30:36;;;;;;;;;;;;;;;43.87;17.94;97496.78;5092380;28;20098;-83
2023/07/26 09:33:02;;;;;;;12.20;4.88;;;;;;;43.78;18.10;97489.94;5075211;28;19915;-84
2023/07/26 09:35:30;;;;;;;14.20;4.53;;;;;;;43.74;18.18;97489.84;5091461;28;20036;-84
2023/07/26 09:37:55;;;;;;;12.07;4.80;;;;;;;43.65;17.94;97498.38;5058423;28;20502;-83
2023/07/26 09:40:31;;;;;;;13.20;4.63;;;;;;;43.46;17.97;97490.97;5075595;28;20040;-83
2023/07/26 09:42:57;;;;;;;11.27;4.55;;;;;;;43.35;18.07;97488.00;5075906;28;20171;-85
2023/07/26 09:45:24;;;;;;;11.57;4.63;;;;;;;43.18;18.02;97488.47;5108926;28;20032;-84
2023/07/26 09:47:51;;;;;;;11.77;4.40;;;;;;;43.05;18.14;97478.78;5075058;28;20403;-85
2023/07/26 09:50:26;;;;;;;12.73;4.50;;;;;;;42.91;18.36;97469.13;5091879;28;20034;-84
2023/07/26 09:52:53;;;;;;;10.15;4.60;;;;;;;42.82;18.49;97466.56;5091988;28;20103;-85
2023/07/26 09:55:23;;;;;;;14.50;4.85;;;;;;;42.77;18.45;97469.63;5075545;28;20122;-84
2023/07/26 09:57:48;;;;;;;13.70;5.22;;;;;;;42.72;18.46;97471.88;5075299;28;20032;-85
2023/07/26 10:00:15;;;;;;;12.03;4.87;;;;;;;42.59;18.68;97461.03;5074751;28;20465;-85
2023/07/26 10:02:40;;;;;;;11.02;4.35;;;;;;;42.49;19.03;97456.06;5091669;28;20467;-85
2023/07/26 10:05:06;;;;;;;17.10;4.90;;;;;;;42.40;18.44;97447.25;5074467;28;20055;-84
2023/07/26 10:07:31;;;;;;;13.93;4.97;;;;;;;42.30;18.81;97449.44;5091701;28;20036;-83
2023/07/26 10:09:57;;;;;;;11.00;4.37;;;;;;;42.25;18.49;97449.69;5058103;28;20062;-85
2023/07/26 10:12:26;;;;;;;20.90;4.63;;;;;;;42.12;18.42;97440.78;5074384;28;20463;-85
2023/07/26 10:14:54;;;;;;;13.15;5.00;;;;;;;41.99;18.65;97447.53;5074741;28;20042;-84
2023/07/26 10:17:19;;;;;;;16.88;4.65;;;;;;;41.90;18.77;97439.50;5075313;28;20411;-83
2023/07/26 10:19:45;;;;;;;15.30;4.87;;;;;;;41.81;19.42;97436.16;5091358;28;20031;-83
2023/07/26 10:22:11;;;;;;;12.55;4.63;;;;;;;41.79;19.28;97435.72;5091523;28;20032;-85
2023/07/26 10:24:37;;;;;;;13.70;4.73;;;;;;;41.73;19.27;97437.13;5090855;28;20452;-82
2023/07/26 10:27:02;;;;;;;13.93;4.57;;;;;;;41.64;19.25;97423.59;5091243;28;20108;-84
2023/07/26 10:29:28;;;;;;;17.65;4.63;;;;;;;41.63;19.56;97426.69;5074193;28;20398;-83
2023/07/26 10:32:02;;;;;;;13.07;4.27;;;;;;;41.54;19.46;97424.13;5090898;28;20460;-85
2023/07/26 10:34:28;;;;;;;12.70;4.85;;;;;;;41.51;19.47;97416.63;5061877;28;20098;-82
2023/07/26 10:36:53;;;;;;;18.15;4.35;;;;;;;41.45;19.43;97416.09;5094472;28;20040;-83
2023/07/26 10:39:28;;;;;;;16.53;5.13;;;;;;;41.39;19.89;97407.34;5094720;28;20040;-83
2023/07/26 10:41:54;;;;;;;12.52;4.82;;;;;;;41.35;19.98;97405.66;5061841;28;20039;-83
2023/07/26 10:44:19;;;;;;;16.20;4.93;;;;;;;41.23;20.03;97401.84;5095000;28;20040;-84
2023/07/26 10:46:55;;;;;;;20.85;5.25;;;;;;;41.15;19.70;97397.34;5095262;28;20032;-82
2023/07/26 10:49:24;;;;;;;11.23;4.93;;;;;;;41.08;19.94;97396.34;5078629;28;20036;-83
2023/07/26 10:51:59;;;;;;;15.13;4.78;;;;;;;41.00;19.74;97387.16;5077970;28;20059;-83
2023/07/26 10:54:39;;;;;;;14.18;4.78;;;;;;;40.92;19.77;97377.19;5078370;28;20024;-82
2023/07/26 10:57:20;;;;;;;14.35;4.60;;;;;;;40.84;19.98;97368.75;5095329;28;20043;-84
2023/07/26 11:00:04;;;;;;;15.18;5.25;;;;;;;40.76;19.95;97366.97;5096125;28;20049;-85
2023/07/26 11:02:36;;;;;;;13.48;4.22;;;;;;;40.67;19.68;97358.91;5094661;28;20063;-83
2023/07/26 11:05:06;;;;;;;14.73;5.15;;;;;;;40.62;19.55;97363.84;5096090;28;20048;-85
2023/07/26 11:08:11;;;;;;;18.70;5.13;;;;;;;40.49;19.83;97360.38;5095986;28;20509;-84
2023/07/26 11:10:38;;;;;;;14.85;4.82;;;;;;;40.42;19.91;97347.31;5094252;28;20036;-80
2023/07/26 11:13:11;;;;;;;11.45;5.10;;;;;;;40.37;20.30;97342.03;5056468;28;20044;-83
2023/07/26 11:15:41;;;;;;;19.48;4.63;;;;;;;40.32;20.29;97343.06;5072452;28;20044;-82
2023/07/26 11:18:07;;;;;;;15.32;4.60;;;;;;;40.28;21.08;97339.47;5078178;28;20055;-83
2023/07/26 11:20:32;;;;;;;11.63;4.57;;;;;;;40.19;20.92;97335.28;5078375;28;20034;-87
2023/07/26 11:22:58;;;;;;;14.25;4.50;;;;;;;40.18;20.61;97331.75;5096421;28;20077;-87
2023/07/26 11:25:23;;;;;;;19.05;5.30;;;;;;;40.15;20.93;97326.97;5095683;28;20374;-87
2023/07/26 11:27:49;;;;;;;15.85;4.70;;;;;;;40.09;20.52;97312.75;5094872;28;20058;-87
2023/07/26 11:30:18;;;;;;;12.20;4.25;;;;;;;40.10;20.86;97319.03;5094593;28;20422;-79
2023/07/26 11:32:47;;;;;;;12.30;4.50;;;;;;;40.06;20.73;97313.47;5076556;28;20043;-85
2023/07/26 11:35:14;;;;;;;14.40;4.60;;;;;;;39.98;20.61;97306.19;5077190;28;20517;-84
2023/07/26 11:37:49;;;;;;;17.80;5.00;;;;;;;39.98;20.75;97300.75;5094011;28;20016;-79
2023/07/26 11:40:15;;;;;;;21.00;5.07;;;;;;;39.98;20.61;97301.53;5094034;28;20036;-82
2023/07/26 11:42:40;;;;;;;17.50;5.00;;;;;;;39.91;20.73;97293.06;5093926;28;20024;-85